Time;durP1;ratioP1;P1;durP2;ratioP2;P2;SDS_P1;SDS_P2;PMS_P1;PMS_P2;Temp;Humidity;BMP_temperature;BMP_pressure;BME280_temperature;BME280_humidity;BME280_pressure;Samples;Min_cycle;Max_cycle;Signal;HPM_P1;HPM_P2
2021/08/21 00:00:13;;;;;;;;;;;18.90;72.00;;;;;;494064;240;1159;-46
2021/08/21 00:02:15;;;;;;;;;;;18.90;72.00;;;;;;494236;240;1255;-46
2021/08/21 00:04:16;;;;;;;;;;;18.90;72.00;;;;;;494106;240;1070;-46
2021/08/21 00:06:17;;;;;;;;;;;18.90;71.90;;;;;;494522;240;1270;-46
2021/08/21 00:08:19;;;;;;;;;;;18.90;71.90;;;;;;494059;240;1050;-46
2021/08/21 00:10:20;;;;;;;;;;;18.90;71.90;;;;;;494556;240;2153;-46
2021/08/21 00:12:21;;;;;;;;;;;18.80;72.00;;;;;;494086;240;1379;-46
2021/08/21 00:14:23;;;;;;;;;;;18.90;72.00;;;;;;494587;240;1013;-46
2021/08/21 00:16:24;;;;;;;;;;;18.80;72.00;;;;;;494200;240;1221;-46
2021/08/21 00:18:25;;;;;;;;;;;18.90;72.00;;;;;;494519;240;1116;-46
2021/08/21 00:20:26;;;;;;;;;;;18.90;72.00;;;;;;494497;240;1097;-46
2021/08/21 00:22:28;;;;;;;;;;;18.90;72.00;;;;;;494077;240;1348;-46
2021/08/21 00:24:29;;;;;;;;;;;18.90;72.00;;;;;;494585;240;1128;-46
2021/08/21 00:26:30;;;;;;;;;;;18.90;71.90;;;;;;494471;240;1226;-46
2021/08/21 00:28:33;;;;;;;;;;;18.90;72.00;;;;;;494099;240;1270;-46
2021/08/21 00:30:34;;;;;;;;;;;18.80;72.00;;;;;;494387;240;2179;-46
2021/08/21 00:32:36;;;;;;;;;;;18.80;72.00;;;;;;494070;240;1163;-46
2021/08/21 00:34:37;;;;;;;;;;;18.80;72.10;;;;;;494560;240;1074;-46
2021/08/21 00:36:38;;;;;;;;;;;18.80;72.00;;;;;;494328;240;1350;-46
2021/08/21 00:38:40;;;;;;;;;;;18.90;72.00;;;;;;494086;240;1036;-46
2021/08/21 00:40:41;;;;;;;;;;;18.80;72.00;;;;;;494271;240;1146;-46
2021/08/21 00:42:42;;;;;;;;;;;18.80;71.90;;;;;;494188;240;1240;-46
2021/08/21 00:44:44;;;;;;;;;;;18.90;72.00;;;;;;494575;240;1070;-46
2021/08/21 00:46:45;;;;;;;;;;;18.80;71.90;;;;;;494080;240;1266;-46
2021/08/21 00:48:46;;;;;;;;;;;18.90;72.00;;;;;;493991;240;1193;-46
2021/08/21 00:50:48;;;;;;;;;;;18.90;72.00;;;;;;494486;240;2132;-46
2021/08/21 00:52:49;;;;;;;;;;;18.80;72.00;;;;;;494472;240;1267;-46
2021/08/21 00:54:50;;;;;;;;;;;18.80;72.00;;;;;;494295;240;1079;-46
2021/08/21 00:56:53;;;;;;;;;;;18.80;72.00;;;;;;494421;240;1223;-46
2021/08/21 00:58:53;;;;;;;;;;;18.90;72.00;;;;;;493955;241;2130;-46
2021/08/21 01:00:54;;;;;;;;;;;18.90;72.00;;;;;;494043;240;1258;-46
2021/08/21 01:02:56;;;;;;;;;;;18.90;72.00;;;;;;494510;240;1190;-46
2021/08/21 01:04:57;;;;;;;;;;;18.90;72.00;;;;;;494146;240;1247;-46
2021/08/21 01:06:59;;;;;;;;;;;18.90;72.00;;;;;;494085;240;1213;-46
2021/08/21 01:09:00;;;;;;;;;;;18.90;72.00;;;;;;494123;240;1203;-46
2021/08/21 01:11:01;;;;;;;;;;;18.90;71.90;;;;;;494215;240;2175;-46
2021/08/21 01:13:03;;;;;;;;;;;18.80;71.90;;;;;;494342;240;1189;-46
2021/08/21 01:15:04;;;;;;;;;;;18.90;72.00;;;;;;494156;240;1120;-46
2021/08/21 01:17:05;;;;;;;;;;;18.90;71.90;;;;;;493996;240;1246;-46
2021/08/21 01:19:07;;;;;;;;;;;18.90;71.90;;;;;;494084;240;1109;-46
2021/08/21 01:21:08;;;;;;;;;;;18.90;72.00;;;;;;494324;240;1136;-46
2021/08/21 01:23:09;;;;;;;;;;;18.80;72.00;;;;;;494118;240;1174;-46
2021/08/21 01:25:11;;;;;;;;;;;18.80;72.00;;;;;;494553;240;1075;-46
2021/08/21 01:27:12;;;;;;;;;;;18.80;72.00;;;;;;494195;240;1187;-46
2021/08/21 01:29:13;;;;;;;;;;;18.80;72.00;;;;;;494563;240;1394;-46
2021/08/21 01:31:14;;;;;;;;;;;18.80;72.10;;;;;;494354;240;2144;-46
2021/08/21 01:33:16;;;;;;;;;;;18.80;72.10;;;;;;494273;240;1226;-46
2021/08/21 01:35:17;;;;;;;;;;;18.80;72.10;;;;;;494086;240;1020;-46
2021/08/21 01:37:19;;;;;;;;;;;18.90;72.00;;;;;;494157;240;1212;-46
2021/08/21 01:39:20;;;;;;;;;;;18.80;72.00;;;;;;494442;240;1056;-46
2021/08/21 01:41:21;;;;;;;;;;;18.80;72.10;;;;;;494007;240;1249;-46
2021/08/21 01:43:23;;;;;;;;;;;18.80;72.00;;;;;;494167;240;1278;-46
2021/08/21 01:45:24;;;;;;;;;;;18.80;72.00;;;;;;494109;240;1264;-46
2021/08/21 01:47:25;;;;;;;;;;;18.80;72.00;;;;;;494190;240;1380;-46
2021/08/21 01:49:27;;;;;;;;;;;18.80;72.00;;;;;;494259;240;1091;-46
2021/08/21 01:51:28;;;;;;;;;;;18.80;72.00;;;;;;494140;240;2190;-46
2021/08/21 01:53:29;;;;;;;;;;;18.80;72.10;;;;;;494041;240;1091;-46
2021/08/21 01:55:31;;;;;;;;;;;18.80;72.00;;;;;;494053;240;1335;-46
2021/08/21 01:57:32;;;;;;;;;;;18.80;72.10;;;;;;493948;240;1206;-46
2021/08/21 01:59:33;;;;;;;;;;;18.80;72.10;;;;;;494295;240;1004;-46
2021/08/21 02:01:35;;;;;;;;;;;18.80;72.00;;;;;;494267;240;1167;-46
2021/08/21 02:03:36;;;;;;;;;;;18.80;72.00;;;;;;494175;240;1228;-46
2021/08/21 02:05:37;;;;;;;;;;;18.80;72.00;;;;;;494104;240;1054;-46
2021/08/21 02:07:39;;;;;;;;;;;18.80;72.00;;;;;;494084;240;1192;-46
2021/08/21 02:09:40;;;;;;;;;;;18.80;72.00;;;;;;494588;240;1051;-46
2021/08/21 02:11:41;;;;;;;;;;;18.80;72.10;;;;;;494228;240;2179;-46
2021/08/21 02:13:43;;;;;;;;;;;18.80;72.10;;;;;;494561;240;1028;-46
2021/08/21 02:15:44;;;;;;;;;;;18.80;72.10;;;;;;494029;240;1056;-46
2021/08/21 02:17:45;;;;;;;;;;;18.80;72.10;;;;;;494103;240;1162;-46
2021/08/21 02:19:47;;;;;;;;;;;18.80;72.10;;;;;;494559;240;1082;-46
2021/08/21 02:21:48;;;;;;;;;;;18.80;72.10;;;;;;494246;240;1053;-46
2021/08/21 02:23:49;;;;;;;;;;;18.80;72.10;;;;;;494074;240;1089;-46
2021/08/21 02:25:56;;;;;;;;;;;18.80;72.20;;;;;;494086;240;1052;-46
2021/08/21 02:27:59;;;;;;;;;;;18.80;72.20;;;;;;494150;241;2240;-46
2021/08/21 02:30:00;;;;;;;;;;;18.80;72.10;;;;;;494216;240;2123;-46
2021/08/21 02:32:01;;;;;;;;;;;18.80;72.10;;;;;;494044;240;1257;-47
2021/08/21 02:34:02;;;;;;;;;;;18.80;72.00;;;;;;494231;240;1150;-46
2021/08/21 02:36:03;;;;;;;;;;;18.90;72.00;;;;;;494336;240;1224;-46
2021/08/21 02:38:05;;;;;;;;;;;18.80;72.00;;;;;;494565;240;1216;-46
2021/08/21 02:40:06;;;;;;;;;;;18.80;72.00;;;;;;494120;240;1078;-46
2021/08/21 02:42:07;;;;;;;;;;;18.80;72.10;;;;;;494455;240;1127;-46
2021/08/21 02:44:09;;;;;;;;;;;18.80;72.10;;;;;;494489;240;1106;-46
2021/08/21 02:46:10;;;;;;;;;;;18.80;72.20;;;;;;494222;240;1228;-46
2021/08/21 02:48:11;;;;;;;;;;;18.80;72.10;;;;;;494096;240;1154;-46
2021/08/21 02:50:13;;;;;;;;;;;18.80;72.10;;;;;;494564;240;2128;-46
2021/08/21 02:52:14;;;;;;;;;;;18.80;72.10;;;;;;494496;240;1177;-46
2021/08/21 02:54:15;;;;;;;;;;;18.80;72.10;;;;;;494577;240;1007;-46
2021/08/21 02:56:17;;;;;;;;;;;18.80;72.10;;;;;;493951;240;1168;-46
2021/08/21 02:58:18;;;;;;;;;;;18.80;72.10;;;;;;494088;240;1069;-46
2021/08/21 03:00:19;;;;;;;;;;;18.80;72.10;;;;;;494560;240;1158;-46
2021/08/21 03:02:21;;;;;;;;;;;18.80;72.20;;;;;;494268;240;1176;-46
2021/08/21 03:04:22;;;;;;;;;;;18.80;72.10;;;;;;494120;240;1057;-46
2021/08/21 03:06:24;;;;;;;;;;;18.80;72.10;;;;;;494378;240;1253;-46
2021/08/21 03:08:25;;;;;;;;;;;18.80;72.10;;;;;;494165;240;1127;-46
2021/08/21 03:10:26;;;;;;;;;;;18.80;72.10;;;;;;494111;240;2143;-46
2021/08/21 03:12:29;;;;;;;;;;;18.80;72.10;;;;;;494410;240;1064;-46
2021/08/21 03:14:29;;;;;;;;;;;18.80;72.10;;;;;;494500;241;1409;-46
2021/08/21 03:16:30;;;;;;;;;;;18.80;72.10;;;;;;494138;240;1143;-46
2021/08/21 03:18:32;;;;;;;;;;;18.80;72.10;;;;;;494187;240;1196;-46
2021/08/21 03:20:34;;;;;;;;;;;18.80;72.20;;;;;;494422;240;1064;-46
2021/08/21 03:22:34;;;;;;;;;;;18.80;72.10;;;;;;494112;240;2019;-46
2021/08/21 03:24:36;;;;;;;;;;;18.80;72.20;;;;;;494574;240;1066;-46
2021/08/21 03:26:37;;;;;;;;;;;18.80;72.10;;;;;;494427;239;1186;-46
2021/08/21 03:28:38;;;;;;;;;;;18.80;72.30;;;;;;494067;240;1089;-46
2021/08/21 03:30:40;;;;;;;;;;;18.80;72.30;;;;;;494508;240;2136;-46
2021/08/21 03:32:41;;;;;;;;;;;18.80;72.30;;;;;;494019;240;1487;-46
2021/08/21 03:34:42;;;;;;;;;;;18.80;72.10;;;;;;494174;240;1145;-46
2021/08/21 03:36:44;;;;;;;;;;;18.70;72.10;;;;;;494025;240;1159;-46
2021/08/21 03:38:45;;;;;;;;;;;18.80;72.10;;;;;;494076;240;1138;-46
2021/08/21 03:40:46;;;;;;;;;;;18.80;72.10;;;;;;494535;240;1032;-46
2021/08/21 03:42:48;;;;;;;;;;;18.80;72.00;;;;;;494487;240;1106;-46
2021/08/21 03:44:49;;;;;;;;;;;18.80;72.10;;;;;;494110;240;1171;-45
2021/08/21 03:46:50;;;;;;;;;;;18.80;72.10;;;;;;494007;240;1168;-46
2021/08/21 03:48:52;;;;;;;;;;;18.80;72.10;;;;;;494240;240;1127;-46
2021/08/21 03:50:53;;;;;;;;;;;18.80;72.10;;;;;;494078;240;2144;-46
2021/08/21 03:52:54;;;;;;;;;;;18.80;72.00;;;;;;494049;240;1137;-46
2021/08/21 03:54:56;;;;;;;;;;;18.80;72.00;;;;;;494107;240;1090;-46
2021/08/21 03:56:57;;;;;;;;;;;18.80;72.10;;;;;;494369;240;1175;-46
2021/08/21 03:58:59;;;;;;;;;;;18.80;72.20;;;;;;494552;240;1058;-46
2021/08/21 04:01:00;;;;;;;;;;;18.80;72.10;;;;;;494378;240;1240;-46
2021/08/21 04:03:01;;;;;;;;;;;18.80;72.10;;;;;;494415;240;1169;-46
2021/08/21 04:05:03;;;;;;;;;;;18.80;72.00;;;;;;494209;240;1045;-46
2021/08/21 04:07:04;;;;;;;;;;;18.80;72.00;;;;;;494538;240;1236;-46
2021/08/21 04:09:05;;;;;;;;;;;18.80;72.10;;;;;;494590;240;1104;-46
2021/08/21 04:11:07;;;;;;;;;;;18.80;72.20;;;;;;494561;240;2135;-46
2021/08/21 04:13:08;;;;;;;;;;;18.80;72.10;;;;;;494534;240;1041;-46
2021/08/21 04:15:09;;;;;;;;;;;18.80;72.00;;;;;;494576;240;1076;-46
2021/08/21 04:17:10;;;;;;;;;;;18.80;72.10;;;;;;494524;240;1404;-46
2021/08/21 04:19:12;;;;;;;;;;;18.80;72.00;;;;;;494112;240;1208;-46
2021/08/21 04:21:13;;;;;;;;;;;18.80;72.10;;;;;;494423;240;1014;-46
2021/08/21 04:23:14;;;;;;;;;;;18.80;72.10;;;;;;494095;240;1038;-45
2021/08/21 04:25:16;;;;;;;;;;;18.80;72.00;;;;;;494587;240;1078;-46
2021/08/21 04:27:17;;;;;;;;;;;18.80;72.00;;;;;;494435;240;1027;-46
2021/08/21 04:29:18;;;;;;;;;;;18.80;72.00;;;;;;494611;240;1041;-46
2021/08/21 04:31:20;;;;;;;;;;;18.80;72.10;;;;;;494179;240;2183;-46
2021/08/21 04:33:21;;;;;;;;;;;18.80;72.10;;;;;;494503;240;1138;-46
2021/08/21 04:35:22;;;;;;;;;;;18.80;72.20;;;;;;494565;240;1053;-46
2021/08/21 04:37:24;;;;;;;;;;;18.80;72.20;;;;;;494054;240;1068;-46
2021/08/21 04:39:25;;;;;;;;;;;18.80;72.10;;;;;;494578;240;1062;-46
2021/08/21 04:41:26;;;;;;;;;;;18.80;72.20;;;;;;494473;240;1174;-46
2021/08/21 04:43:28;;;;;;;;;;;18.80;72.10;;;;;;494117;240;1031;-46
2021/08/21 04:45:29;;;;;;;;;;;18.80;72.10;;;;;;494347;240;1028;-46
2021/08/21 04:47:30;;;;;;;;;;;18.70;72.10;;;;;;494394;240;1100;-46
2021/08/21 04:49:31;;;;;;;;;;;18.70;72.20;;;;;;494282;240;1211;-46
2021/08/21 04:51:33;;;;;;;;;;;18.80;72.30;;;;;;494131;240;2206;-46
2021/08/21 04:53:34;;;;;;;;;;;18.80;72.20;;;;;;494148;240;991;-46
2021/08/21 04:55:36;;;;;;;;;;;18.70;72.20;;;;;;494231;240;977;-46
2021/08/21 04:57:37;;;;;;;;;;;18.80;72.20;;;;;;494229;240;1146;-46
2021/08/21 04:59:38;;;;;;;;;;;18.70;72.20;;;;;;494111;240;1064;-46
2021/08/21 05:01:39;;;;;;;;;;;18.80;72.10;;;;;;494506;240;1360;-46
2021/08/21 05:03:41;;;;;;;;;;;18.80;72.20;;;;;;494493;240;1151;-46
2021/08/21 05:05:43;;;;;;;;;;;18.80;72.20;;;;;;494568;240;1041;-46
2021/08/21 05:07:43;;;;;;;;;;;18.80;72.20;;;;;;494212;241;1980;-45
2021/08/21 05:09:45;;;;;;;;;;;18.80;72.20;;;;;;494574;240;1055;-46
2021/08/21 05:11:46;;;;;;;;;;;18.80;72.10;;;;;;494381;240;2128;-46
2021/08/21 05:13:47;;;;;;;;;;;18.70;72.10;;;;;;494561;240;1139;-47
2021/08/21 05:15:49;;;;;;;;;;;18.80;71.90;;;;;;494331;240;1036;-46
2021/08/21 05:17:52;;;;;;;;;;;19.10;70.80;;;;;;494047;240;1383;-46
2021/08/21 05:19:53;;;;;;;;;;;19.40;69.80;;;;;;494189;241;1829;-46
2021/08/21 05:21:56;;;;;;;;;;;19.60;68.80;;;;;;493988;240;1583;-46
2021/08/21 05:23:54;;;;;;;;;;;19.80;68.10;;;;;;494178;241;1957;-47
2021/08/21 05:25:55;;;;;;;;;;;19.90;67.60;;;;;;494437;240;1328;-46
2021/08/21 05:27:57;;;;;;;;;;;20.10;67.30;;;;;;494499;240;1285;-46
2021/08/21 05:29:58;;;;;;;;;;;20.10;66.90;;;;;;494552;240;1076;-46
2021/08/21 05:31:59;;;;;;;;;;;20.20;66.60;;;;;;494094;240;2195;-46
2021/08/21 05:34:01;;;;;;;;;;;20.20;66.50;;;;;;494241;240;1190;-46
2021/08/21 05:36:02;;;;;;;;;;;20.30;66.40;;;;;;494132;240;1238;-46
2021/08/21 05:38:03;;;;;;;;;;;20.40;66.20;;;;;;494035;240;1055;-46
2021/08/21 05:40:04;;;;;;;;;;;20.40;65.90;;;;;;494518;240;1113;-47
2021/08/21 05:42:06;;;;;;;;;;;20.50;65.90;;;;;;494301;240;1218;-46
2021/08/21 05:44:07;;;;;;;;;;;20.50;65.70;;;;;;494099;240;1031;-46
2021/08/21 05:46:09;;;;;;;;;;;20.60;65.40;;;;;;494063;240;1408;-47
2021/08/21 05:48:10;;;;;;;;;;;20.60;65.30;;;;;;494162;240;1207;-46
2021/08/21 05:50:11;;;;;;;;;;;20.60;65.30;;;;;;494068;240;1264;-46
2021/08/21 05:52:12;;;;;;;;;;;20.70;65.10;;;;;;494140;240;2143;-47
2021/08/21 05:54:14;;;;;;;;;;;20.80;65.10;;;;;;494058;240;1185;-46
2021/08/21 05:56:15;;;;;;;;;;;20.80;64.90;;;;;;494453;239;1176;-46
2021/08/21 05:58:16;;;;;;;;;;;20.80;64.90;;;;;;494083;240;1258;-46
2021/08/21 06:00:18;;;;;;;;;;;20.80;64.90;;;;;;494387;240;947;-46
2021/08/21 06:02:19;;;;;;;;;;;20.80;64.80;;;;;;494233;240;1146;-46
2021/08/21 06:04:20;;;;;;;;;;;20.80;64.80;;;;;;494301;240;1079;-46
2021/08/21 06:06:23;;;;;;;;;;;20.90;64.70;;;;;;493990;240;1150;-46
2021/08/21 06:08:23;;;;;;;;;;;20.90;64.60;;;;;;494292;241;1743;-46
2021/08/21 06:10:24;;;;;;;;;;;20.90;64.50;;;;;;494062;240;1060;-46
2021/08/21 06:12:26;;;;;;;;;;;20.90;64.40;;;;;;494397;240;2139;-47
2021/08/21 06:14:27;;;;;;;;;;;20.90;64.50;;;;;;494479;240;1177;-46
2021/08/21 06:16:28;;;;;;;;;;;21.00;64.40;;;;;;493974;240;1300;-46
2021/08/21 06:18:30;;;;;;;;;;;21.00;64.40;;;;;;494203;240;1283;-46
2021/08/21 06:20:31;;;;;;;;;;;21.00;64.50;;;;;;494293;240;1306;-46
2021/08/21 06:22:32;;;;;;;;;;;21.10;64.30;;;;;;494138;240;1397;-47
2021/08/21 06:24:34;;;;;;;;;;;21.10;64.30;;;;;;494104;240;1177;-46
2021/08/21 06:26:35;;;;;;;;;;;21.10;64.00;;;;;;493970;240;1210;-47
2021/08/21 06:28:36;;;;;;;;;;;21.10;64.00;;;;;;494050;240;1077;-47
2021/08/21 06:30:38;;;;;;;;;;;21.10;64.00;;;;;;494350;240;1138;-46
2021/08/21 06:32:39;;;;;;;;;;;21.10;64.00;;;;;;494434;240;2183;-47
2021/08/21 06:34:40;;;;;;;;;;;21.10;64.00;;;;;;494074;240;1139;-47
2021/08/21 06:36:41;;;;;;;;;;;21.20;63.90;;;;;;493998;240;1346;-47
2021/08/21 06:38:43;;;;;;;;;;;21.10;64.00;;;;;;494215;240;1082;-46
2021/08/21 06:40:44;;;;;;;;;;;21.20;64.00;;;;;;494087;240;1077;-46
2021/08/21 06:42:45;;;;;;;;;;;21.20;63.90;;;;;;494170;240;1189;-46
2021/08/21 06:44:47;;;;;;;;;;;21.20;63.90;;;;;;494262;240;1071;-46
2021/08/21 06:46:48;;;;;;;;;;;21.30;63.80;;;;;;493943;240;1330;-47
2021/08/21 06:48:49;;;;;;;;;;;21.30;63.70;;;;;;494007;240;1226;-46
2021/08/21 06:50:51;;;;;;;;;;;21.30;63.80;;;;;;494206;240;1414;-47
2021/08/21 06:52:52;;;;;;;;;;;21.30;63.70;;;;;;494467;240;2194;-47
2021/08/21 06:54:53;;;;;;;;;;;21.30;63.70;;;;;;494528;240;1198;-46
2021/08/21 06:56:55;;;;;;;;;;;21.30;63.70;;;;;;494114;239;1159;-46
2021/08/21 06:58:56;;;;;;;;;;;21.30;63.70;;;;;;494223;240;1048;-47
2021/08/21 07:00:57;;;;;;;;;;;21.30;63.60;;;;;;494387;240;1543;-47
2021/08/21 07:02:59;;;;;;;;;;;21.40;63.50;;;;;;493944;240;1235;-46
2021/08/21 07:05:00;;;;;;;;;;;21.40;63.60;;;;;;494510;240;1179;-46
2021/08/21 07:07:02;;;;;;;;;;;21.40;63.60;;;;;;494354;240;1059;-46
2021/08/21 07:09:03;;;;;;;;;;;21.40;63.60;;;;;;494283;240;1192;-46
2021/08/21 07:11:04;;;;;;;;;;;21.40;63.50;;;;;;494453;240;1069;-46
2021/08/21 07:13:06;;;;;;;;;;;21.40;63.50;;;;;;494097;240;2148;-46
2021/08/21 07:15:07;;;;;;;;;;;21.40;63.40;;;;;;494039;240;1086;-46
2021/08/21 07:17:10;;;;;;;;;;;21.40;63.50;;;;;;494013;240;1196;-46
2021/08/21 07:19:10;;;;;;;;;;;21.50;63.50;;;;;;494043;241;2513;-47
2021/08/21 07:21:11;;;;;;;;;;;21.40;63.40;;;;;;494252;240;1174;-47
2021/08/21 07:23:12;;;;;;;;;;;21.50;63.50;;;;;;494311;240;1696;-47
2021/08/21 07:25:14;;;;;;;;;;;21.50;63.40;;;;;;494360;240;1054;-47
2021/08/21 07:27:15;;;;;;;;;;;21.50;63.50;;;;;;494030;240;1329;-47
2021/08/21 07:29:16;;;;;;;;;;;21.50;63.40;;;;;;494188;240;1112;-46
2021/08/21 07:31:18;;;;;;;;;;;21.50;63.40;;;;;;494435;240;1382;-46
2021/08/21 07:33:19;;;;;;;;;;;21.50;63.40;;;;;;494445;240;2207;-46
2021/08/21 07:35:21;;;;;;;;;;;21.50;63.40;;;;;;494006;240;1290;-46
2021/08/21 07:37:22;;;;;;;;;;;21.50;63.30;;;;;;494059;240;1179;-46
2021/08/21 07:39:23;;;;;;;;;;;21.60;63.40;;;;;;494461;240;1384;-47
2021/08/21 07:41:24;;;;;;;;;;;21.50;63.30;;;;;;494445;240;1033;-46
2021/08/21 07:43:26;;;;;;;;;;;21.50;63.40;;;;;;494325;240;1045;-46
2021/08/21 07:45:27;;;;;;;;;;;21.60;63.40;;;;;;494552;240;1097;-46
2021/08/21 07:47:28;;;;;;;;;;;21.50;63.30;;;;;;494507;240;1171;-46
2021/08/21 07:49:30;;;;;;;;;;;21.50;63.30;;;;;;494085;240;1044;-47
2021/08/21 07:51:31;;;;;;;;;;;21.50;63.40;;;;;;494025;240;1194;-46
2021/08/21 07:53:32;;;;;;;;;;;21.60;63.40;;;;;;494305;240;2175;-47
2021/08/21 07:55:34;;;;;;;;;;;21.60;63.40;;;;;;494229;240;1162;-46
2021/08/21 07:57:35;;;;;;;;;;;21.50;63.80;;;;;;494431;240;1160;-46
2021/08/21 07:59:36;;;;;;;;;;;21.60;64.20;;;;;;494491;240;1134;-46
2021/08/21 08:01:38;;;;;;;;;;;21.40;64.70;;;;;;494324;240;1346;-46
2021/08/21 08:03:39;;;;;;;;;;;21.10;65.90;;;;;;494167;240;1061;-46
2021/08/21 08:05:40;;;;;;;;;;;20.70;67.20;;;;;;493991;240;1187;-46
2021/08/21 08:07:42;;;;;;;;;;;20.40;68.10;;;;;;494251;240;1279;-46
2021/08/21 08:09:43;;;;;;;;;;;20.30;68.70;;;;;;494172;240;1067;-46
2021/08/21 08:11:44;;;;;;;;;;;20.20;69.20;;;;;;493992;240;1561;-46
2021/08/21 08:13:46;;;;;;;;;;;20.10;69.50;;;;;;494520;240;2109;-46
2021/08/21 08:15:47;;;;;;;;;;;20.00;69.70;;;;;;494462;240;1355;-46
2021/08/21 08:17:48;;;;;;;;;;;19.90;69.90;;;;;;494075;240;1187;-46
2021/08/21 08:19:49;;;;;;;;;;;19.90;70.20;;;;;;494557;240;979;-46
2021/08/21 08:21:51;;;;;;;;;;;19.80;70.30;;;;;;494127;240;1167;-46
2021/08/21 08:23:53;;;;;;;;;;;19.80;70.50;;;;;;494491;240;1078;-46
2021/08/21 08:25:53;;;;;;;;;;;19.80;70.50;;;;;;494201;241;1922;-46
2021/08/21 08:27:55;;;;;;;;;;;19.70;70.60;;;;;;494112;240;1154;-47
2021/08/21 08:29:56;;;;;;;;;;;19.60;70.70;;;;;;494528;240;1043;-47
2021/08/21 08:31:57;;;;;;;;;;;19.60;70.70;;;;;;494277;240;1329;-46
2021/08/21 08:33:59;;;;;;;;;;;19.60;70.80;;;;;;494225;240;2135;-46
2021/08/21 08:36:00;;;;;;;;;;;19.60;70.80;;;;;;494379;240;1137;-46
2021/08/21 08:38:01;;;;;;;;;;;19.60;70.90;;;;;;493966;240;1168;-46
2021/08/21 08:40:03;;;;;;;;;;;19.50;71.00;;;;;;494367;240;1012;-46
2021/08/21 08:42:04;;;;;;;;;;;19.50;71.00;;;;;;493889;240;1518;-46
2021/08/21 08:44:05;;;;;;;;;;;19.50;71.00;;;;;;494255;240;1276;-46
2021/08/21 08:46:07;;;;;;;;;;;19.50;71.00;;;;;;494366;240;1372;-46
2021/08/21 08:48:08;;;;;;;;;;;19.40;71.10;;;;;;494064;240;1043;-46
2021/08/21 08:50:09;;;;;;;;;;;19.40;71.00;;;;;;494516;240;1074;-46
2021/08/21 08:52:11;;;;;;;;;;;19.40;71.10;;;;;;493918;240;2168;-46
2021/08/21 08:54:12;;;;;;;;;;;19.40;71.10;;;;;;494041;240;1191;-46
2021/08/21 08:56:14;;;;;;;;;;;19.40;71.10;;;;;;494013;240;1179;-46
2021/08/21 08:58:15;;;;;;;;;;;19.40;71.20;;;;;;494010;240;1046;-46
2021/08/21 09:00:16;;;;;;;;;;;19.40;71.30;;;;;;494411;240;1184;-46
2021/08/21 09:02:17;;;;;;;;;;;19.30;71.20;;;;;;494493;240;1232;-46
2021/08/21 09:04:19;;;;;;;;;;;19.30;71.20;;;;;;494084;240;1089;-46
2021/08/21 09:06:20;;;;;;;;;;;19.30;71.30;;;;;;493957;240;1334;-46
2021/08/21 09:08:21;;;;;;;;;;;19.30;71.30;;;;;;494030;240;1087;-46
2021/08/21 09:10:23;;;;;;;;;;;19.30;71.30;;;;;;494457;240;1130;-46
2021/08/21 09:12:25;;;;;;;;;;;19.30;71.30;;;;;;494348;240;2132;-46
2021/08/21 09:14:27;;;;;;;;;;;19.30;71.30;;;;;;494551;240;1074;-46
2021/08/21 09:16:27;;;;;;;;;;;19.30;71.30;;;;;;493928;239;2399;-46
2021/08/21 09:18:29;;;;;;;;;;;19.30;71.30;;;;;;494475;240;1122;-47
2021/08/21 09:20:30;;;;;;;;;;;19.30;71.30;;;;;;494423;240;1170;-46
2021/08/21 09:22:31;;;;;;;;;;;19.30;71.20;;;;;;494082;240;1192;-46
2021/08/21 09:24:32;;;;;;;;;;;19.20;71.30;;;;;;494423;240;1130;-46
2021/08/21 09:26:35;;;;;;;;;;;19.20;71.30;;;;;;494411;240;1332;-46
2021/08/21 09:28:36;;;;;;;;;;;19.30;71.30;;;;;;494006;240;1287;-46
2021/08/21 09:30:38;;;;;;;;;;;19.20;71.40;;;;;;494057;240;1101;-46
2021/08/21 09:32:39;;;;;;;;;;;19.20;71.50;;;;;;494302;240;2183;-45
2021/08/21 09:34:40;;;;;;;;;;;19.20;71.50;;;;;;494521;240;1235;-45
2021/08/21 09:36:42;;;;;;;;;;;19.10;71.40;;;;;;494460;240;1339;-46
2021/08/21 09:38:43;;;;;;;;;;;19.10;71.50;;;;;;494117;240;1234;-46
2021/08/21 09:40:44;;;;;;;;;;;19.20;71.60;;;;;;494085;240;1266;-46
2021/08/21 09:42:45;;;;;;;;;;;19.20;71.50;;;;;;494513;240;1061;-46
2021/08/21 09:44:47;;;;;;;;;;;19.20;71.50;;;;;;494499;240;1177;-46
2021/08/21 09:46:48;;;;;;;;;;;19.10;71.50;;;;;;494294;240;1325;-46
2021/08/21 09:48:49;;;;;;;;;;;19.10;71.40;;;;;;494160;240;1044;-46
2021/08/21 09:50:51;;;;;;;;;;;19.20;71.50;;;;;;494139;240;1324;-46
2021/08/21 09:52:52;;;;;;;;;;;19.10;71.50;;;;;;494036;240;2215;-46
2021/08/21 09:54:53;;;;;;;;;;;19.10;71.50;;;;;;494169;240;1049;-46
2021/08/21 09:56:55;;;;;;;;;;;19.10;71.50;;;;;;494354;240;1031;-46
2021/08/21 09:58:56;;;;;;;;;;;19.10;71.40;;;;;;494073;240;1039;-46
2021/08/21 10:00:59;;;;;;;;;;;19.10;71.40;;;;;;494460;240;1144;-46
2021/08/21 10:02:59;;;;;;;;;;;19.10;71.50;;;;;;493924;241;2686;-46
2021/08/21 10:05:00;;;;;;;;;;;19.10;71.40;;;;;;494537;240;1412;-46
2021/08/21 10:07:04;;;;;;;;;;;19.10;71.30;;;;;;494019;240;1238;-46
2021/08/21 10:09:07;;;;;;;;;;;19.10;71.50;;;;;;493868;241;1276;-46
2021/08/21 10:11:06;;;;;;;;;;;19.10;71.50;;;;;;493795;241;2026;-46
2021/08/21 10:13:08;;;;;;;;;;;19.10;71.50;;;;;;494375;240;2195;-46
2021/08/21 10:15:09;;;;;;;;;;;19.10;71.50;;;;;;494480;240;1931;-46
2021/08/21 10:17:10;;;;;;;;;;;19.10;71.50;;;;;;494293;240;1210;-46
2021/08/21 10:19:12;;;;;;;;;;;19.10;71.50;;;;;;494523;240;1260;-46
2021/08/21 10:21:13;;;;;;;;;;;19.00;71.50;;;;;;494214;240;1435;-46
2021/08/21 10:23:14;;;;;;;;;;;19.00;71.50;;;;;;494064;240;1256;-46
2021/08/21 10:25:16;;;;;;;;;;;19.00;71.60;;;;;;493929;240;1097;-46
2021/08/21 10:27:17;;;;;;;;;;;19.00;71.60;;;;;;493907;240;1072;-46
2021/08/21 10:29:18;;;;;;;;;;;19.00;71.60;;;;;;494086;240;1066;-46
2021/08/21 10:31:20;;;;;;;;;;;19.00;71.60;;;;;;494064;240;1057;-46
2021/08/21 10:33:21;;;;;;;;;;;19.00;71.50;;;;;;494076;240;2143;-46
2021/08/21 10:35:22;;;;;;;;;;;19.00;71.60;;;;;;494482;240;1168;-46
2021/08/21 10:37:23;;;;;;;;;;;19.00;71.50;;;;;;494205;240;1212;-46
2021/08/21 10:39:25;;;;;;;;;;;19.00;71.50;;;;;;494120;240;1152;-46
2021/08/21 10:41:26;;;;;;;;;;;19.00;71.60;;;;;;494056;240;1168;-46
2021/08/21 10:43:27;;;;;;;;;;;19.00;71.50;;;;;;494047;240;1080;-46
2021/08/21 10:45:29;;;;;;;;;;;19.00;71.50;;;;;;494505;240;1021;-46
2021/08/21 10:47:30;;;;;;;;;;;19.00;71.50;;;;;;494048;240;1092;-46
2021/08/21 10:49:31;;;;;;;;;;;19.00;71.60;;;;;;494298;240;1080;-46
2021/08/21 10:51:33;;;;;;;;;;;19.00;71.70;;;;;;494426;240;1351;-46
2021/08/21 10:53:35;;;;;;;;;;;19.00;71.70;;;;;;494025;240;2151;-46
2021/08/21 10:55:36;;;;;;;;;;;18.90;71.70;;;;;;494232;240;1224;-46
2021/08/21 10:57:37;;;;;;;;;;;19.00;71.70;;;;;;494101;240;1199;-46
2021/08/21 10:59:39;;;;;;;;;;;19.00;71.70;;;;;;494310;240;1094;-46
2021/08/21 11:01:40;;;;;;;;;;;18.90;71.70;;;;;;493977;240;1164;-46
2021/08/21 11:03:41;;;;;;;;;;;19.00;71.80;;;;;;494047;240;1114;-46
2021/08/21 11:05:43;;;;;;;;;;;19.00;71.70;;;;;;494477;240;1038;-46
2021/08/21 11:07:44;;;;;;;;;;;19.00;71.70;;;;;;493965;240;1155;-46
2021/08/21 11:09:45;;;;;;;;;;;19.00;71.70;;;;;;494130;240;1175;-46
2021/08/21 11:11:47;;;;;;;;;;;18.90;71.80;;;;;;494009;240;1401;-46
2021/08/21 11:13:48;;;;;;;;;;;19.00;71.80;;;;;;494297;241;2147;-46
2021/08/21 11:15:49;;;;;;;;;;;18.90;71.70;;;;;;494270;240;1057;-46
2021/08/21 11:17:51;;;;;;;;;;;19.00;71.80;;;;;;494018;240;1216;-46
2021/08/21 11:19:52;;;;;;;;;;;18.90;71.80;;;;;;494534;240;1069;-46
2021/08/21 11:21:53;;;;;;;;;;;18.90;71.80;;;;;;494120;240;1164;-46
2021/08/21 11:23:55;;;;;;;;;;;18.90;71.70;;;;;;494007;240;1204;-46
2021/08/21 11:25:56;;;;;;;;;;;18.90;71.70;;;;;;494004;240;1053;-46
2021/08/21 11:27:57;;;;;;;;;;;18.90;71.70;;;;;;494313;240;1291;-46
2021/08/21 11:29:59;;;;;;;;;;;18.90;71.70;;;;;;494011;240;1101;-46
2021/08/21 11:32:00;;;;;;;;;;;18.90;71.80;;;;;;493912;240;1102;-45
2021/08/21 11:34:02;;;;;;;;;;;19.00;71.80;;;;;;493994;240;2144;-46
2021/08/21 11:36:03;;;;;;;;;;;18.90;71.70;;;;;;494432;240;1044;-46
2021/08/21 11:38:04;;;;;;;;;;;18.90;71.60;;;;;;494083;240;1062;-46
2021/08/21 11:40:06;;;;;;;;;;;18.90;71.80;;;;;;494131;240;1199;-46
2021/08/21 11:42:07;;;;;;;;;;;18.90;71.80;;;;;;494462;240;1099;-46
2021/08/21 11:44:08;;;;;;;;;;;18.90;71.80;;;;;;494532;240;1069;-46
2021/08/21 11:46:10;;;;;;;;;;;18.90;71.80;;;;;;494075;240;1059;-46
2021/08/21 11:48:11;;;;;;;;;;;18.90;71.90;;;;;;494455;240;1077;-46
2021/08/21 11:50:12;;;;;;;;;;;18.90;71.90;;;;;;494561;240;1085;-46
2021/08/21 11:52:14;;;;;;;;;;;18.90;71.90;;;;;;494048;240;1237;-46
2021/08/21 11:54:15;;;;;;;;;;;18.90;71.90;;;;;;494212;240;2144;-46
2021/08/21 11:56:16;;;;;;;;;;;18.90;71.80;;;;;;494052;240;1358;-46